sensor_id;sensor_type;location;lat;lon;timestamp;P1;durP1;ratioP1;P2;durP2;ratioP2
5129;SDS011;2583;50.946;6.954;2023-03-03T00:00:54;39.30;;;24.97;;
5129;SDS011;2583;50.946;6.954;2023-03-03T00:03:22;34.00;;;23.37;;
5129;SDS011;2583;50.946;6.954;2023-03-03T00:05:51;38.10;;;24.37;;
5129;SDS011;2583;50.946;6.954;2023-03-03T00:08:18;35.77;;;24.40;;
5129;SDS011;2583;50.946;6.954;2023-03-03T00:10:46;37.87;;;24.10;;
5129;SDS011;2583;50.946;6.954;2023-03-03T00:13:14;38.10;;;23.97;;
5129;SDS011;2583;50.946;6.954;2023-03-03T00:15:43;40.10;;;25.77;;
5129;SDS011;2583;50.946;6.954;2023-03-03T00:20:56;40.13;;;26.27;;
5129;SDS011;2583;50.946;6.954;2023-03-03T00:23:36;37.70;;;25.07;;
5129;SDS011;2583;50.946;6.954;2023-03-03T00:26:24;39.77;;;26.33;;
5129;SDS011;2583;50.946;6.954;2023-03-03T00:28:56;42.23;;;25.20;;
5129;SDS011;2583;50.946;6.954;2023-03-03T00:31:26;39.03;;;25.67;;
5129;SDS011;2583;50.946;6.954;2023-03-03T00:34:02;41.57;;;24.40;;
5129;SDS011;2583;50.946;6.954;2023-03-03T00:36:46;39.80;;;26.60;;
5129;SDS011;2583;50.946;6.954;2023-03-03T00:42:09;46.60;;;27.20;;
5129;SDS011;2583;50.946;6.954;2023-03-03T00:44:58;42.53;;;26.13;;
5129;SDS011;2583;50.946;6.954;2023-03-03T00:47:35;46.17;;;27.53;;
5129;SDS011;2583;50.946;6.954;2023-03-03T00:52:37;48.93;;;27.97;;
5129;SDS011;2583;50.946;6.954;2023-03-03T00:55:16;42.10;;;26.30;;
5129;SDS011;2583;50.946;6.954;2023-03-03T00:57:43;41.97;;;27.07;;
5129;SDS011;2583;50.946;6.954;2023-03-03T01:00:10;47.00;;;26.60;;
5129;SDS011;2583;50.946;6.954;2023-03-03T01:02:38;43.23;;;28.17;;
5129;SDS011;2583;50.946;6.954;2023-03-03T01:05:05;42.33;;;28.27;;
5129;SDS011;2583;50.946;6.954;2023-03-03T01:07:32;45.30;;;27.60;;
5129;SDS011;2583;50.946;6.954;2023-03-03T01:09:59;47.87;;;29.30;;
5129;SDS011;2583;50.946;6.954;2023-03-03T01:12:25;49.63;;;27.90;;
5129;SDS011;2583;50.946;6.954;2023-03-03T01:14:52;49.03;;;28.40;;
5129;SDS011;2583;50.946;6.954;2023-03-03T01:17:20;49.33;;;28.97;;
5129;SDS011;2583;50.946;6.954;2023-03-03T01:19:47;44.63;;;28.73;;
5129;SDS011;2583;50.946;6.954;2023-03-03T01:22:14;42.73;;;27.83;;
5129;SDS011;2583;50.946;6.954;2023-03-03T01:24:40;53.43;;;30.90;;
5129;SDS011;2583;50.946;6.954;2023-03-03T01:27:07;47.33;;;28.70;;
5129;SDS011;2583;50.946;6.954;2023-03-03T01:29:34;45.20;;;28.37;;
5129;SDS011;2583;50.946;6.954;2023-03-03T01:32:01;47.27;;;31.30;;
5129;SDS011;2583;50.946;6.954;2023-03-03T01:34:28;51.87;;;30.40;;
5129;SDS011;2583;50.946;6.954;2023-03-03T01:36:55;51.10;;;30.20;;
5129;SDS011;2583;50.946;6.954;2023-03-03T01:39:21;51.40;;;30.47;;
5129;SDS011;2583;50.946;6.954;2023-03-03T01:41:48;56.40;;;30.23;;
5129;SDS011;2583;50.946;6.954;2023-03-03T01:44:15;53.60;;;31.50;;
5129;SDS011;2583;50.946;6.954;2023-03-03T01:49:13;50.80;;;30.20;;
5129;SDS011;2583;50.946;6.954;2023-03-03T01:51:49;53.40;;;32.20;;
5129;SDS011;2583;50.946;6.954;2023-03-03T01:54:25;51.63;;;30.20;;
5129;SDS011;2583;50.946;6.954;2023-03-03T01:57:01;54.80;;;32.50;;
5129;SDS011;2583;50.946;6.954;2023-03-03T01:59:33;52.97;;;31.40;;
5129;SDS011;2583;50.946;6.954;2023-03-03T02:02:03;51.00;;;29.83;;
5129;SDS011;2583;50.946;6.954;2023-03-03T02:04:30;53.77;;;31.47;;
5129;SDS011;2583;50.946;6.954;2023-03-03T02:06:59;55.57;;;31.13;;
5129;SDS011;2583;50.946;6.954;2023-03-03T02:12:18;53.07;;;30.90;;
5129;SDS011;2583;50.946;6.954;2023-03-03T02:14:47;60.40;;;34.03;;
5129;SDS011;2583;50.946;6.954;2023-03-03T02:17:14;55.83;;;31.27;;
5129;SDS011;2583;50.946;6.954;2023-03-03T02:19:46;54.90;;;31.83;;
5129;SDS011;2583;50.946;6.954;2023-03-03T02:22:39;57.23;;;33.00;;
5129;SDS011;2583;50.946;6.954;2023-03-03T02:25:15;53.90;;;32.47;;
5129;SDS011;2583;50.946;6.954;2023-03-03T02:27:52;52.60;;;30.40;;
5129;SDS011;2583;50.946;6.954;2023-03-03T02:30:20;60.83;;;32.77;;
5129;SDS011;2583;50.946;6.954;2023-03-03T02:32:47;58.23;;;31.97;;
5129;SDS011;2583;50.946;6.954;2023-03-03T02:35:24;62.43;;;35.03;;
5129;SDS011;2583;50.946;6.954;2023-03-03T02:37:55;56.23;;;32.10;;
5129;SDS011;2583;50.946;6.954;2023-03-03T02:40:35;60.27;;;31.90;;
5129;SDS011;2583;50.946;6.954;2023-03-03T02:43:07;55.70;;;32.63;;
5129;SDS011;2583;50.946;6.954;2023-03-03T02:45:40;57.00;;;32.60;;
5129;SDS011;2583;50.946;6.954;2023-03-03T02:48:08;56.83;;;32.40;;
5129;SDS011;2583;50.946;6.954;2023-03-03T02:50:36;59.70;;;32.50;;
5129;SDS011;2583;50.946;6.954;2023-03-03T02:53:02;64.27;;;35.83;;
5129;SDS011;2583;50.946;6.954;2023-03-03T02:55:29;55.53;;;33.53;;
5129;SDS011;2583;50.946;6.954;2023-03-03T02:57:56;57.00;;;32.27;;
5129;SDS011;2583;50.946;6.954;2023-03-03T03:00:23;56.07;;;31.07;;
5129;SDS011;2583;50.946;6.954;2023-03-03T03:02:50;58.73;;;32.30;;
5129;SDS011;2583;50.946;6.954;2023-03-03T03:05:16;61.57;;;34.70;;
5129;SDS011;2583;50.946;6.954;2023-03-03T03:07:43;54.93;;;31.83;;
5129;SDS011;2583;50.946;6.954;2023-03-03T03:10:10;57.03;;;33.10;;
5129;SDS011;2583;50.946;6.954;2023-03-03T03:12:37;55.50;;;32.20;;
5129;SDS011;2583;50.946;6.954;2023-03-03T03:15:04;55.20;;;32.17;;
5129;SDS011;2583;50.946;6.954;2023-03-03T03:17:31;56.17;;;31.80;;
5129;SDS011;2583;50.946;6.954;2023-03-03T03:19:58;57.23;;;32.00;;
5129;SDS011;2583;50.946;6.954;2023-03-03T03:22:24;53.03;;;31.47;;
5129;SDS011;2583;50.946;6.954;2023-03-03T03:24:51;51.70;;;29.90;;
5129;SDS011;2583;50.946;6.954;2023-03-03T03:27:18;58.33;;;32.60;;
5129;SDS011;2583;50.946;6.954;2023-03-03T03:29:45;58.50;;;32.97;;
5129;SDS011;2583;50.946;6.954;2023-03-03T03:32:11;55.10;;;30.40;;
5129;SDS011;2583;50.946;6.954;2023-03-03T03:34:38;55.10;;;32.10;;
5129;SDS011;2583;50.946;6.954;2023-03-03T03:37:05;53.47;;;31.13;;
5129;SDS011;2583;50.946;6.954;2023-03-03T03:39:35;60.53;;;32.40;;
5129;SDS011;2583;50.946;6.954;2023-03-03T03:42:02;59.40;;;31.47;;
5129;SDS011;2583;50.946;6.954;2023-03-03T03:44:28;55.50;;;31.27;;
5129;SDS011;2583;50.946;6.954;2023-03-03T03:46:55;59.37;;;32.10;;
5129;SDS011;2583;50.946;6.954;2023-03-03T03:49:22;58.67;;;32.07;;
5129;SDS011;2583;50.946;6.954;2023-03-03T03:51:49;53.30;;;29.90;;
5129;SDS011;2583;50.946;6.954;2023-03-03T03:54:16;55.90;;;30.57;;
5129;SDS011;2583;50.946;6.954;2023-03-03T03:56:43;52.33;;;31.00;;
5129;SDS011;2583;50.946;6.954;2023-03-03T03:59:09;51.13;;;28.13;;
5129;SDS011;2583;50.946;6.954;2023-03-03T04:01:36;51.57;;;29.70;;
5129;SDS011;2583;50.946;6.954;2023-03-03T04:04:03;51.87;;;28.33;;
5129;SDS011;2583;50.946;6.954;2023-03-03T04:06:30;54.50;;;29.23;;
5129;SDS011;2583;50.946;6.954;2023-03-03T04:08:57;52.20;;;28.87;;
5129;SDS011;2583;50.946;6.954;2023-03-03T04:11:24;48.63;;;27.73;;
5129;SDS011;2583;50.946;6.954;2023-03-03T04:13:51;53.93;;;28.13;;
5129;SDS011;2583;50.946;6.954;2023-03-03T04:16:17;48.83;;;27.80;;
5129;SDS011;2583;50.946;6.954;2023-03-03T04:18:44;47.17;;;28.30;;
5129;SDS011;2583;50.946;6.954;2023-03-03T04:21:12;46.63;;;28.63;;
5129;SDS011;2583;50.946;6.954;2023-03-03T04:23:40;49.20;;;28.20;;
5129;SDS011;2583;50.946;6.954;2023-03-03T04:26:07;49.03;;;28.50;;
5129;SDS011;2583;50.946;6.954;2023-03-03T04:28:34;47.37;;;27.23;;
5129;SDS011;2583;50.946;6.954;2023-03-03T04:31:01;48.77;;;27.20;;
5129;SDS011;2583;50.946;6.954;2023-03-03T04:33:28;50.03;;;27.83;;
5129;SDS011;2583;50.946;6.954;2023-03-03T04:35:55;47.03;;;25.37;;
5129;SDS011;2583;50.946;6.954;2023-03-03T04:38:22;48.30;;;26.87;;
5129;SDS011;2583;50.946;6.954;2023-03-03T04:40:49;43.47;;;26.23;;
5129;SDS011;2583;50.946;6.954;2023-03-03T04:43:16;42.30;;;26.30;;
5129;SDS011;2583;50.946;6.954;2023-03-03T04:45:42;43.37;;;25.50;;
5129;SDS011;2583;50.946;6.954;2023-03-03T04:48:09;45.23;;;25.77;;
5129;SDS011;2583;50.946;6.954;2023-03-03T04:50:36;48.67;;;26.53;;
5129;SDS011;2583;50.946;6.954;2023-03-03T04:53:03;48.23;;;27.67;;
5129;SDS011;2583;50.946;6.954;2023-03-03T04:55:30;47.83;;;27.23;;
5129;SDS011;2583;50.946;6.954;2023-03-03T04:57:57;47.27;;;26.37;;
5129;SDS011;2583;50.946;6.954;2023-03-03T05:00:23;50.27;;;27.40;;
5129;SDS011;2583;50.946;6.954;2023-03-03T05:02:50;45.07;;;26.63;;
5129;SDS011;2583;50.946;6.954;2023-03-03T05:05:17;48.50;;;26.63;;
5129;SDS011;2583;50.946;6.954;2023-03-03T05:07:44;50.17;;;28.50;;
5129;SDS011;2583;50.946;6.954;2023-03-03T05:10:11;50.73;;;28.00;;
5129;SDS011;2583;50.946;6.954;2023-03-03T05:12:38;61.53;;;29.17;;
5129;SDS011;2583;50.946;6.954;2023-03-03T05:15:05;50.83;;;28.90;;
5129;SDS011;2583;50.946;6.954;2023-03-03T05:17:32;48.33;;;27.50;;
5129;SDS011;2583;50.946;6.954;2023-03-03T05:19:59;48.07;;;28.63;;
5129;SDS011;2583;50.946;6.954;2023-03-03T05:22:25;49.43;;;27.50;;
5129;SDS011;2583;50.946;6.954;2023-03-03T05:24:53;46.07;;;25.57;;
5129;SDS011;2583;50.946;6.954;2023-03-03T05:27:19;46.33;;;25.53;;
5129;SDS011;2583;50.946;6.954;2023-03-03T05:29:46;45.67;;;27.30;;
5129;SDS011;2583;50.946;6.954;2023-03-03T05:32:13;40.53;;;24.23;;
5129;SDS011;2583;50.946;6.954;2023-03-03T05:34:40;44.97;;;26.77;;
5129;SDS011;2583;50.946;6.954;2023-03-03T05:37:07;46.60;;;27.63;;
5129;SDS011;2583;50.946;6.954;2023-03-03T05:39:34;48.00;;;24.93;;
5129;SDS011;2583;50.946;6.954;2023-03-03T05:42:01;47.87;;;25.80;;
5129;SDS011;2583;50.946;6.954;2023-03-03T05:44:28;51.93;;;26.90;;
5129;SDS011;2583;50.946;6.954;2023-03-03T05:46:55;45.43;;;26.97;;
5129;SDS011;2583;50.946;6.954;2023-03-03T05:49:23;45.77;;;26.37;;
5129;SDS011;2583;50.946;6.954;2023-03-03T05:51:50;55.77;;;27.77;;
5129;SDS011;2583;50.946;6.954;2023-03-03T05:54:17;46.40;;;25.90;;
5129;SDS011;2583;50.946;6.954;2023-03-03T05:56:44;48.73;;;28.07;;
5129;SDS011;2583;50.946;6.954;2023-03-03T05:59:10;45.53;;;27.30;;
5129;SDS011;2583;50.946;6.954;2023-03-03T06:01:37;51.07;;;27.50;;
5129;SDS011;2583;50.946;6.954;2023-03-03T06:04:04;55.17;;;30.53;;
5129;SDS011;2583;50.946;6.954;2023-03-03T06:06:31;50.80;;;28.63;;
5129;SDS011;2583;50.946;6.954;2023-03-03T06:08:57;45.80;;;27.20;;
5129;SDS011;2583;50.946;6.954;2023-03-03T06:11:24;48.63;;;28.63;;
5129;SDS011;2583;50.946;6.954;2023-03-03T06:13:51;48.53;;;27.80;;
5129;SDS011;2583;50.946;6.954;2023-03-03T06:16:18;50.97;;;29.00;;
5129;SDS011;2583;50.946;6.954;2023-03-03T06:18:45;51.90;;;29.10;;
5129;SDS011;2583;50.946;6.954;2023-03-03T06:21:12;51.73;;;29.70;;
5129;SDS011;2583;50.946;6.954;2023-03-03T06:23:39;50.10;;;29.10;;
5129;SDS011;2583;50.946;6.954;2023-03-03T06:26:06;48.70;;;28.47;;
5129;SDS011;2583;50.946;6.954;2023-03-03T06:28:33;44.90;;;28.37;;
5129;SDS011;2583;50.946;6.954;2023-03-03T06:30:59;49.27;;;30.07;;
5129;SDS011;2583;50.946;6.954;2023-03-03T06:33:26;51.50;;;28.87;;
5129;SDS011;2583;50.946;6.954;2023-03-03T06:35:53;63.33;;;28.00;;
5129;SDS011;2583;50.946;6.954;2023-03-03T06:38:20;51.73;;;30.13;;
5129;SDS011;2583;50.946;6.954;2023-03-03T06:40:47;49.77;;;29.60;;
5129;SDS011;2583;50.946;6.954;2023-03-03T06:43:13;46.47;;;25.50;;
5129;SDS011;2583;50.946;6.954;2023-03-03T06:45:40;47.63;;;26.67;;
5129;SDS011;2583;50.946;6.954;2023-03-03T06:48:08;45.83;;;27.40;;
5129;SDS011;2583;50.946;6.954;2023-03-03T06:50:35;49.80;;;27.30;;
5129;SDS011;2583;50.946;6.954;2023-03-03T06:53:13;44.87;;;26.73;;
5129;SDS011;2583;50.946;6.954;2023-03-03T06:55:41;47.97;;;27.37;;
5129;SDS011;2583;50.946;6.954;2023-03-03T06:58:13;39.77;;;24.13;;
5129;SDS011;2583;50.946;6.954;2023-03-03T07:01:00;43.10;;;25.37;;
5129;SDS011;2583;50.946;6.954;2023-03-03T07:03:33;43.93;;;24.17;;
5129;SDS011;2583;50.946;6.954;2023-03-03T07:06:01;41.17;;;24.17;;
5129;SDS011;2583;50.946;6.954;2023-03-03T07:08:39;39.10;;;23.67;;
5129;SDS011;2583;50.946;6.954;2023-03-03T07:11:07;40.40;;;24.40;;
5129;SDS011;2583;50.946;6.954;2023-03-03T07:13:43;40.93;;;23.67;;
5129;SDS011;2583;50.946;6.954;2023-03-03T07:16:15;38.40;;;23.10;;
5129;SDS011;2583;50.946;6.954;2023-03-03T07:18:54;44.73;;;24.67;;
5129;SDS011;2583;50.946;6.954;2023-03-03T07:21:22;43.87;;;24.33;;
5129;SDS011;2583;50.946;6.954;2023-03-03T07:23:55;43.37;;;24.20;;
5129;SDS011;2583;50.946;6.954;2023-03-03T07:26:24;41.87;;;24.27;;
5129;SDS011;2583;50.946;6.954;2023-03-03T07:31:54;34.10;;;20.83;;
5129;SDS011;2583;50.946;6.954;2023-03-03T07:34:24;42.57;;;21.67;;
5129;SDS011;2583;50.946;6.954;2023-03-03T07:36:56;45.50;;;25.33;;
5129;SDS011;2583;50.946;6.954;2023-03-03T07:44:46;35.40;;;19.30;;
5129;SDS011;2583;50.946;6.954;2023-03-03T07:47:25;36.17;;;20.57;;
5129;SDS011;2583;50.946;6.954;2023-03-03T07:50:17;32.37;;;20.07;;
5129;SDS011;2583;50.946;6.954;2023-03-03T07:52:58;32.77;;;20.93;;
5129;SDS011;2583;50.946;6.954;2023-03-03T07:57:57;36.53;;;22.23;;
5129;SDS011;2583;50.946;6.954;2023-03-03T08:03:46;34.00;;;18.93;;
5129;SDS011;2583;50.946;6.954;2023-03-03T08:11:43;31.80;;;19.30;;
5129;SDS011;2583;50.946;6.954;2023-03-03T08:14:18;35.50;;;20.03;;
5129;SDS011;2583;50.946;6.954;2023-03-03T08:16:56;32.57;;;20.93;;
5129;SDS011;2583;50.946;6.954;2023-03-03T08:19:27;36.07;;;19.97;;
5129;SDS011;2583;50.946;6.954;2023-03-03T08:21:58;36.47;;;23.63;;
5129;SDS011;2583;50.946;6.954;2023-03-03T08:24:32;37.23;;;24.07;;
5129;SDS011;2583;50.946;6.954;2023-03-03T08:26:58;41.17;;;23.60;;
5129;SDS011;2583;50.946;6.954;2023-03-03T08:29:25;38.20;;;23.73;;
5129;SDS011;2583;50.946;6.954;2023-03-03T08:31:52;46.80;;;25.80;;
5129;SDS011;2583;50.946;6.954;2023-03-03T08:34:19;43.37;;;22.70;;
5129;SDS011;2583;50.946;6.954;2023-03-03T08:36:46;44.97;;;23.13;;
5129;SDS011;2583;50.946;6.954;2023-03-03T08:39:13;33.77;;;22.10;;
5129;SDS011;2583;50.946;6.954;2023-03-03T08:41:39;39.93;;;23.97;;
5129;SDS011;2583;50.946;6.954;2023-03-03T08:44:09;40.53;;;24.83;;
5129;SDS011;2583;50.946;6.954;2023-03-03T08:46:36;41.10;;;25.87;;
5129;SDS011;2583;50.946;6.954;2023-03-03T08:49:04;46.43;;;27.47;;
5129;SDS011;2583;50.946;6.954;2023-03-03T08:51:30;43.77;;;27.33;;
5129;SDS011;2583;50.946;6.954;2023-03-03T08:53:59;44.13;;;25.67;;
5129;SDS011;2583;50.946;6.954;2023-03-03T08:56:26;36.30;;;23.30;;
5129;SDS011;2583;50.946;6.954;2023-03-03T08:58:53;40.73;;;25.37;;
5129;SDS011;2583;50.946;6.954;2023-03-03T09:01:28;43.40;;;26.77;;
5129;SDS011;2583;50.946;6.954;2023-03-03T09:03:56;46.73;;;28.63;;
5129;SDS011;2583;50.946;6.954;2023-03-03T09:06:23;48.50;;;28.47;;
5129;SDS011;2583;50.946;6.954;2023-03-03T09:08:50;50.27;;;30.60;;
5129;SDS011;2583;50.946;6.954;2023-03-03T09:11:20;48.67;;;29.77;;
5129;SDS011;2583;50.946;6.954;2023-03-03T09:13:53;48.53;;;29.33;;
5129;SDS011;2583;50.946;6.954;2023-03-03T09:16:37;51.17;;;29.80;;
5129;SDS011;2583;50.946;6.954;2023-03-03T09:21:56;51.07;;;28.20;;
5129;SDS011;2583;50.946;6.954;2023-03-03T09:24:28;44.70;;;26.97;;
5129;SDS011;2583;50.946;6.954;2023-03-03T09:26:56;36.33;;;23.33;;
5129;SDS011;2583;50.946;6.954;2023-03-03T09:29:28;44.80;;;26.30;;
5129;SDS011;2583;50.946;6.954;2023-03-03T09:32:05;44.57;;;27.40;;
5129;SDS011;2583;50.946;6.954;2023-03-03T09:34:47;60.77;;;27.87;;
5129;SDS011;2583;50.946;6.954;2023-03-03T09:37:21;46.93;;;27.47;;
5129;SDS011;2583;50.946;6.954;2023-03-03T09:39:52;47.63;;;26.47;;
5129;SDS011;2583;50.946;6.954;2023-03-03T09:50:36;37.50;;;25.97;;
5129;SDS011;2583;50.946;6.954;2023-03-03T10:01:46;40.63;;;23.60;;
5129;SDS011;2583;50.946;6.954;2023-03-03T10:12:34;42.13;;;25.87;;
5129;SDS011;2583;50.946;6.954;2023-03-03T10:23:20;32.23;;;19.00;;
5129;SDS011;2583;50.946;6.954;2023-03-03T10:28:46;39.87;;;24.40;;
5129;SDS011;2583;50.946;6.954;2023-03-03T10:31:54;45.17;;;26.80;;
5129;SDS011;2583;50.946;6.954;2023-03-03T10:37:40;44.70;;;25.90;;
5129;SDS011;2583;50.946;6.954;2023-03-03T10:40:32;48.63;;;27.10;;
5129;SDS011;2583;50.946;6.954;2023-03-03T10:43:15;44.17;;;25.63;;
5129;SDS011;2583;50.946;6.954;2023-03-03T10:52:02;45.80;;;26.30;;
5129;SDS011;2583;50.946;6.954;2023-03-03T10:57:36;56.20;;;26.97;;
5129;SDS011;2583;50.946;6.954;2023-03-03T11:00:27;48.27;;;28.07;;
5129;SDS011;2583;50.946;6.954;2023-03-03T11:06:04;50.17;;;28.00;;
5129;SDS011;2583;50.946;6.954;2023-03-03T11:09:07;50.90;;;26.13;;
5129;SDS011;2583;50.946;6.954;2023-03-03T11:14:38;49.93;;;28.43;;
5129;SDS011;2583;50.946;6.954;2023-03-03T11:22:46;44.03;;;26.17;;
5129;SDS011;2583;50.946;6.954;2023-03-03T11:28:12;44.27;;;25.20;;
5129;SDS011;2583;50.946;6.954;2023-03-03T11:39:33;54.80;;;28.70;;
5129;SDS011;2583;50.946;6.954;2023-03-03T11:44:42;44.60;;;26.43;;
5129;SDS011;2583;50.946;6.954;2023-03-03T11:49:49;45.83;;;26.23;;
5129;SDS011;2583;50.946;6.954;2023-03-03T11:57:43;46.10;;;26.00;;
5129;SDS011;2583;50.946;6.954;2023-03-03T12:13:52;42.33;;;24.53;;
5129;SDS011;2583;50.946;6.954;2023-03-03T12:16:53;43.93;;;24.33;;
5129;SDS011;2583;50.946;6.954;2023-03-03T12:19:32;39.90;;;23.17;;
5129;SDS011;2583;50.946;6.954;2023-03-03T12:27:57;40.13;;;22.07;;
5129;SDS011;2583;50.946;6.954;2023-03-03T12:33:39;41.53;;;24.63;;
5129;SDS011;2583;50.946;6.954;2023-03-03T12:39:19;37.93;;;20.87;;
5129;SDS011;2583;50.946;6.954;2023-03-03T12:44:59;44.37;;;24.87;;
5129;SDS011;2583;50.946;6.954;2023-03-03T12:47:50;40.93;;;25.10;;
5129;SDS011;2583;50.946;6.954;2023-03-03T12:56:13;37.77;;;21.50;;
5129;SDS011;2583;50.946;6.954;2023-03-03T13:07:18;29.27;;;18.90;;
5129;SDS011;2583;50.946;6.954;2023-03-03T13:09:58;36.90;;;20.97;;
5129;SDS011;2583;50.946;6.954;2023-03-03T13:13:32;35.40;;;20.33;;
5129;SDS011;2583;50.946;6.954;2023-03-03T13:15:55;34.20;;;20.33;;
5129;SDS011;2583;50.946;6.954;2023-03-03T13:21:30;33.77;;;19.60;;
5129;SDS011;2583;50.946;6.954;2023-03-03T13:24:34;33.63;;;20.00;;
5129;SDS011;2583;50.946;6.954;2023-03-03T13:27:22;35.87;;;19.27;;
5129;SDS011;2583;50.946;6.954;2023-03-03T13:29:55;31.13;;;19.17;;
5129;SDS011;2583;50.946;6.954;2023-03-03T13:32:31;33.30;;;19.90;;
5129;SDS011;2583;50.946;6.954;2023-03-03T13:37:57;33.40;;;18.63;;
5129;SDS011;2583;50.946;6.954;2023-03-03T13:43:16;32.17;;;19.97;;
5129;SDS011;2583;50.946;6.954;2023-03-03T13:46:03;37.20;;;20.93;;
5129;SDS011;2583;50.946;6.954;2023-03-03T13:57:20;42.43;;;22.53;;
5129;SDS011;2583;50.946;6.954;2023-03-03T14:03:14;49.33;;;24.73;;
5129;SDS011;2583;50.946;6.954;2023-03-03T14:06:20;39.00;;;23.03;;
5129;SDS011;2583;50.946;6.954;2023-03-03T14:11:29;48.87;;;24.60;;
5129;SDS011;2583;50.946;6.954;2023-03-03T14:17:17;37.63;;;21.90;;
5129;SDS011;2583;50.946;6.954;2023-03-03T14:20:00;35.17;;;21.17;;
5129;SDS011;2583;50.946;6.954;2023-03-03T14:25:18;34.67;;;21.83;;
5129;SDS011;2583;50.946;6.954;2023-03-03T14:35:42;45.93;;;25.30;;
5129;SDS011;2583;50.946;6.954;2023-03-03T14:38:16;51.00;;;26.37;;
5129;SDS011;2583;50.946;6.954;2023-03-03T14:40:45;51.33;;;26.73;;
5129;SDS011;2583;50.946;6.954;2023-03-03T14:48:59;60.37;;;27.90;;
5129;SDS011;2583;50.946;6.954;2023-03-03T14:51:41;52.07;;;26.20;;
5129;SDS011;2583;50.946;6.954;2023-03-03T14:54:23;49.00;;;25.30;;
5129;SDS011;2583;50.946;6.954;2023-03-03T14:56:57;54.27;;;26.30;;
5129;SDS011;2583;50.946;6.954;2023-03-03T14:59:37;54.37;;;25.37;;
5129;SDS011;2583;50.946;6.954;2023-03-03T15:02:23;56.87;;;25.60;;
5129;SDS011;2583;50.946;6.954;2023-03-03T15:15:49;52.00;;;23.50;;
5129;SDS011;2583;50.946;6.954;2023-03-03T15:18:35;48.83;;;24.20;;
5129;SDS011;2583;50.946;6.954;2023-03-03T15:21:21;46.30;;;23.50;;
5129;SDS011;2583;50.946;6.954;2023-03-03T15:31:52;54.10;;;24.07;;
5129;SDS011;2583;50.946;6.954;2023-03-03T15:37:37;46.43;;;21.10;;
5129;SDS011;2583;50.946;6.954;2023-03-03T15:57:00;48.00;;;22.30;;
5129;SDS011;2583;50.946;6.954;2023-03-03T16:05:34;48.37;;;21.40;;
5129;SDS011;2583;50.946;6.954;2023-03-03T16:08:38;53.43;;;22.70;;
5129;SDS011;2583;50.946;6.954;2023-03-03T16:11:27;50.50;;;20.83;;
5129;SDS011;2583;50.946;6.954;2023-03-03T16:25:30;38.87;;;17.57;;
5129;SDS011;2583;50.946;6.954;2023-03-03T16:28:42;41.80;;;19.93;;
5129;SDS011;2583;50.946;6.954;2023-03-03T16:31:35;43.67;;;19.50;;
5129;SDS011;2583;50.946;6.954;2023-03-03T16:53:24;48.70;;;19.80;;
5129;SDS011;2583;50.946;6.954;2023-03-03T17:04:47;42.27;;;18.43;;
5129;SDS011;2583;50.946;6.954;2023-03-03T17:07:43;45.30;;;20.10;;
5129;SDS011;2583;50.946;6.954;2023-03-03T17:13:16;42.53;;;18.53;;
5129;SDS011;2583;50.946;6.954;2023-03-03T17:18:59;44.73;;;18.90;;
5129;SDS011;2583;50.946;6.954;2023-03-03T17:21:54;35.43;;;17.43;;
5129;SDS011;2583;50.946;6.954;2023-03-03T17:27:25;41.93;;;18.10;;
5129;SDS011;2583;50.946;6.954;2023-03-03T17:32:52;43.73;;;19.23;;
5129;SDS011;2583;50.946;6.954;2023-03-03T17:38:41;53.47;;;24.93;;
5129;SDS011;2583;50.946;6.954;2023-03-03T17:44:21;53.00;;;28.23;;
5129;SDS011;2583;50.946;6.954;2023-03-03T17:47:03;61.03;;;30.30;;
5129;SDS011;2583;50.946;6.954;2023-03-03T18:22:45;79.23;;;42.20;;
5129;SDS011;2583;50.946;6.954;2023-03-03T18:25:14;83.53;;;42.00;;
5129;SDS011;2583;50.946;6.954;2023-03-03T18:28:12;84.87;;;41.80;;
5129;SDS011;2583;50.946;6.954;2023-03-03T18:34:24;82.97;;;42.53;;
5129;SDS011;2583;50.946;6.954;2023-03-03T18:38:53;76.80;;;41.40;;
5129;SDS011;2583;50.946;6.954;2023-03-03T18:41:22;96.87;;;43.20;;
5129;SDS011;2583;50.946;6.954;2023-03-03T18:43:53;86.57;;;42.27;;
5129;SDS011;2583;50.946;6.954;2023-03-03T18:49:05;78.07;;;42.03;;
5129;SDS011;2583;50.946;6.954;2023-03-03T18:56:49;93.70;;;42.07;;
5129;SDS011;2583;50.946;6.954;2023-03-03T18:59:47;77.87;;;41.47;;
5129;SDS011;2583;50.946;6.954;2023-03-03T19:04:51;94.63;;;45.80;;
5129;SDS011;2583;50.946;6.954;2023-03-03T19:10:01;90.30;;;45.00;;
5129;SDS011;2583;50.946;6.954;2023-03-03T19:12:43;93.80;;;46.50;;
5129;SDS011;2583;50.946;6.954;2023-03-03T19:20:52;92.67;;;45.67;;
5129;SDS011;2583;50.946;6.954;2023-03-03T19:51:46;113.43;;;49.53;;
5129;SDS011;2583;50.946;6.954;2023-03-03T19:57:12;116.13;;;57.93;;
5129;SDS011;2583;50.946;6.954;2023-03-03T19:59:59;105.87;;;51.43;;
5129;SDS011;2583;50.946;6.954;2023-03-03T20:05:37;107.83;;;47.80;;
5129;SDS011;2583;50.946;6.954;2023-03-03T20:08:20;110.57;;;51.43;;
5129;SDS011;2583;50.946;6.954;2023-03-03T20:23:21;104.47;;;50.17;;
5129;SDS011;2583;50.946;6.954;2023-03-03T20:26:28;115.83;;;51.20;;
5129;SDS011;2583;50.946;6.954;2023-03-03T20:40:30;112.47;;;51.03;;
5129;SDS011;2583;50.946;6.954;2023-03-03T20:57:22;102.27;;;50.07;;
5129;SDS011;2583;50.946;6.954;2023-03-03T21:00:00;114.47;;;52.90;;
5129;SDS011;2583;50.946;6.954;2023-03-03T21:02:46;110.10;;;51.47;;
5129;SDS011;2583;50.946;6.954;2023-03-03T21:05:25;114.43;;;56.72;;
5129;SDS011;2583;50.946;6.954;2023-03-03T21:07:53;113.87;;;55.07;;
5129;SDS011;2583;50.946;6.954;2023-03-03T21:10:32;111.23;;;56.00;;
5129;SDS011;2583;50.946;6.954;2023-03-03T21:13:24;115.50;;;54.30;;
5129;SDS011;2583;50.946;6.954;2023-03-03T21:16:08;112.20;;;52.30;;
5129;SDS011;2583;50.946;6.954;2023-03-03T21:18:35;109.80;;;48.77;;
5129;SDS011;2583;50.946;6.954;2023-03-03T21:21:02;117.07;;;52.03;;
5129;SDS011;2583;50.946;6.954;2023-03-03T21:23:30;108.90;;;51.23;;
5129;SDS011;2583;50.946;6.954;2023-03-03T21:25:57;109.37;;;52.03;;
5129;SDS011;2583;50.946;6.954;2023-03-03T21:28:25;109.60;;;52.93;;
5129;SDS011;2583;50.946;6.954;2023-03-03T21:37:02;107.83;;;50.00;;
5129;SDS011;2583;50.946;6.954;2023-03-03T21:42:06;110.83;;;50.53;;
5129;SDS011;2583;50.946;6.954;2023-03-03T21:44:43;104.50;;;51.50;;
5129;SDS011;2583;50.946;6.954;2023-03-03T21:47:12;137.23;;;64.83;;
5129;SDS011;2583;50.946;6.954;2023-03-03T21:49:42;121.60;;;55.97;;
5129;SDS011;2583;50.946;6.954;2023-03-03T21:52:10;104.17;;;50.30;;
5129;SDS011;2583;50.946;6.954;2023-03-03T21:54:40;101.27;;;47.77;;
5129;SDS011;2583;50.946;6.954;2023-03-03T21:57:07;102.00;;;49.50;;
5129;SDS011;2583;50.946;6.954;2023-03-03T21:59:34;95.47;;;47.63;;
5129;SDS011;2583;50.946;6.954;2023-03-03T22:02:02;94.20;;;45.70;;
5129;SDS011;2583;50.946;6.954;2023-03-03T22:04:31;94.10;;;46.20;;
5129;SDS011;2583;50.946;6.954;2023-03-03T22:06:59;106.07;;;45.80;;
5129;SDS011;2583;50.946;6.954;2023-03-03T22:09:26;91.93;;;43.90;;
5129;SDS011;2583;50.946;6.954;2023-03-03T22:11:52;95.23;;;44.07;;
5129;SDS011;2583;50.946;6.954;2023-03-03T22:14:20;94.60;;;46.70;;
5129;SDS011;2583;50.946;6.954;2023-03-03T22:16:46;93.33;;;44.00;;
5129;SDS011;2583;50.946;6.954;2023-03-03T22:19:13;91.10;;;44.40;;
5129;SDS011;2583;50.946;6.954;2023-03-03T22:21:40;90.43;;;42.77;;
5129;SDS011;2583;50.946;6.954;2023-03-03T22:24:07;88.60;;;43.60;;
5129;SDS011;2583;50.946;6.954;2023-03-03T22:26:34;90.27;;;43.27;;
5129;SDS011;2583;50.946;6.954;2023-03-03T22:29:01;92.07;;;43.03;;
5129;SDS011;2583;50.946;6.954;2023-03-03T22:31:28;99.63;;;45.17;;
5129;SDS011;2583;50.946;6.954;2023-03-03T22:33:55;93.60;;;45.67;;
5129;SDS011;2583;50.946;6.954;2023-03-03T22:36:22;86.07;;;44.20;;
5129;SDS011;2583;50.946;6.954;2023-03-03T22:38:48;92.97;;;43.10;;
5129;SDS011;2583;50.946;6.954;2023-03-03T22:41:16;94.03;;;43.03;;